METAR COR LDSP 260700Z 04024G36KT 9999 SCT045 BKN050 09/M01 Q1015 NOSIG=
METAR LDSP 260630Z 03028G40KT 9999 SCT055 10/M02 Q1013 NOSIG=
METAR LDSP 260600Z 04030G40KT 9999 FEW050 OVC075 10/M04 Q1013 NOSIG=
METAR LDSP 260530Z 04029G40KT 9999 SCT050 OVC075 10/M04 Q1012 NOSIG=
METAR LDSP 260500Z 03027G37KT 9999 SCT050 10/M04 Q1012 NOSIG=
METAR COR LDSP 260430Z 04024G34KT 9999 -RA SCT050 10/M03 Q1011 NOSIG=
METAR LDSP 260400Z AUTO 04027G44KT 9999 -SHRA FEW057/// 10/M02 Q1010 NOSIG=
METAR LDSP 260330Z AUTO 04027G40KT 9999 -RA BKN060/// 09/M01 Q1010 NOSIG=
METAR LDSP 260300Z AUTO 04024G36KT 9999 BKN059/// 11/M03 Q1011 NOSIG=
METAR LDSP 260230Z AUTO 03027G40KT CAVOK 11/M03 Q1010=
METAR LDSP 260200Z AUTO 04025G38KT 9999 BKN081/// 11/M03 Q1010=
METAR LDSP 260130Z AUTO 04027G41KT CAVOK 11/M03 Q1010=
METAR LDSP 260100Z AUTO 04029G46KT 010V070 CAVOK 11/M03 Q1010=
METAR LDSP 260030Z AUTO 04025G40KT CAVOK 12/M02 Q1010=
METAR LDSP 260000Z AUTO 04030G46KT CAVOK 12/M02 Q1010=
METAR LDSP 252330Z AUTO 04019G30KT 020V080 CAVOK 13/00 Q1010=
METAR LDSP 252300Z AUTO 03012KT CAVOK 14/04 Q1010=
METAR LDSP 252230Z AUTO VRB03KT CAVOK 14/05 Q1010=
METAR LDSP 252200Z AUTO VRB03KT CAVOK 14/07 Q1009=
METAR LDSP 252130Z AUTO 36007KT CAVOK 12/08 Q1009=
METAR LDSP 252100Z 02002KT CAVOK 12/07 Q1009 NOSIG=
METAR LDSP 252030Z 35002KT CAVOK 12/07 Q1009 NOSIG=
METAR LDSP 252000Z VRB02KT CAVOK 13/08 Q1009 NOSIG=
METAR LDSP 251930Z VRB02KT CAVOK 12/07 Q1009 NOSIG=
METAR LDSP 251900Z VRB02KT CAVOK 13/08 Q1009 NOSIG=
METAR LDSP 251830Z 33004KT CAVOK 13/08 Q1009 NOSIG=
METAR LDSP 251800Z 33002KT CAVOK 13/09 Q1009 NOSIG=
METAR LDSP 251730Z 22004KT CAVOK 14/10 Q1009 NOSIG=
METAR LDSP 251700Z 22004KT CAVOK 15/10 Q1009 NOSIG=
METAR LDSP 251630Z 20005KT CAVOK 16/10 Q1009 NOSIG=
METAR LDSP 251600Z 20005KT CAVOK 17/10 Q1009 NOSIG=
METAR LDSP 251530Z 20005KT 160V230 CAVOK 17/09 Q1009 NOSIG=
METAR LDSP 251500Z 20005KT 160V230 CAVOK 17/08 Q1010 NOSIG=
METAR LDSP 251430Z 22006KT 190V250 CAVOK 18/08 Q1010 NOSIG=
METAR LDSP 251400Z 24007KT 190V290 CAVOK 18/08 Q1011 NOSIG=
METAR LDSP 251330Z 23008KT 180V250 CAVOK 18/08 Q1011 NOSIG=
METAR LDSP 251300Z 21006KT 170V260 CAVOK 18/07 Q1011 NOSIG=
METAR LDSP 251230Z 22008KT 190V250 CAVOK 18/07 Q1012 NOSIG=
METAR LDSP 251200Z VRB04KT CAVOK 18/07 Q1012 BECMG 23008KT=
METAR LDSP 251130Z 14004KT 080V250 CAVOK 18/07 Q1013 BECMG 23008KT=
METAR LDSP 251100Z 11005KT CAVOK 18/05 Q1013 BECMG 23008KT=
METAR LDSP 251030Z 10006KT CAVOK 17/05 Q1013 BECMG 23008KT=
METAR COR LDSP 251000Z 11005KT CAVOK 17/05 Q1014 BECMG 23008KT=
METAR LDSP 250930Z 10003KT 050V140 CAVOK 17/05 Q1014 BECMG FM1000 23008KT=
METAR LDSP 250900Z 12004KT 050V160 CAVOK 17/05 Q1014 NOSIG=
METAR LDSP 250830Z 06003KT 330V140 CAVOK 16/05 Q1014 NOSIG=
METAR LDSP 250800Z 09003KT 050V140 CAVOK 15/04 Q1015 NOSIG=
METAR LDSP 250730Z 09003KT 030V120 CAVOK 14/05 Q1015 NOSIG=
METAR LDSP 250700Z 07004KT 020V110 CAVOK 13/04 Q1015 NOSIG=
METAR LDSP 250630Z 00000KT CAVOK 11/05 Q1015 NOSIG=
METAR LDSP 250600Z 25004KT CAVOK 09/05 Q1015 NOSIG=
METAR LDSP 250530Z 36004KT CAVOK 09/03 Q1015 NOSIG=
METAR LDSP 250500Z 01002KT CAVOK 07/01 Q1015 NOSIG=
METAR LDSP 250430Z AUTO 02003KT CAVOK 07/01 Q1015 NOSIG=
METAR LDSP 250400Z AUTO VRB01KT CAVOK 06/01 Q1015 NOSIG=
METAR LDSP 250330Z AUTO 35004KT CAVOK 08/02 Q1015 NOSIG=
METAR LDSP 250300Z AUTO 36003KT CAVOK 08/03 Q1015 NOSIG=
METAR LDSP 250230Z AUTO VRB01KT CAVOK 10/04 Q1015=
METAR LDSP 250200Z AUTO 34005KT 280V360 CAVOK 09/01 Q1016=
METAR LDSP 250130Z AUTO 35003KT CAVOK 08/02 Q1016=
METAR LDSP 250100Z AUTO 36004KT CAVOK 09/01 Q1016=
METAR LDSP 250030Z AUTO 36004KT 340V040 CAVOK 09/01 Q1016=
METAR LDSP 250000Z AUTO 03003KT 360V060 CAVOK 08/02 Q1017=
METAR LDSP 242330Z AUTO 00000KT CAVOK 09/02 Q1017=
METAR LDSP 242300Z AUTO 23002KT CAVOK 10/04 Q1017=
METAR LDSP 242230Z AUTO 00000KT CAVOK 09/01 Q1017=
METAR LDSP 242200Z AUTO 00000KT CAVOK 10/04 Q1017=
METAR LDSP 242130Z AUTO VRB02KT CAVOK 10/03 Q1017=
METAR LDSP 242100Z 00000KT CAVOK 11/02 Q1017 NOSIG=
METAR LDSP 242030Z VRB01KT CAVOK 13/02 Q1018 NOSIG=
METAR LDSP 242000Z 24003KT CAVOK 12/06 Q1018 NOSIG=
METAR LDSP 241930Z 35004KT CAVOK 14/01 Q1018 NOSIG=